createdAt,value
2022-11-24T00:01:25.824Z,2.60
2022-11-24T00:04:02.494Z,2.50
2022-11-24T00:06:31.565Z,2.47
2022-11-24T00:08:58.998Z,2.87
2022-11-24T00:11:31.257Z,3.53
2022-11-24T00:13:59.029Z,2.20
2022-11-24T00:16:31.047Z,3.43
2022-11-24T00:18:59.784Z,3.30
2022-11-24T00:21:28.437Z,2.40
2022-11-24T00:23:56.010Z,2.80
2022-11-24T00:26:34.580Z,2.93
2022-11-24T00:29:05.435Z,2.67
2022-11-24T00:31:37.744Z,3.03
2022-11-24T00:34:07.367Z,5.53
2022-11-24T00:36:36.001Z,3.33
2022-11-24T00:39:08.246Z,3.07
2022-11-24T00:41:35.402Z,3.03
2022-11-24T00:44:02.779Z,2.67
2022-11-24T00:46:30.109Z,4.27
2022-11-24T00:48:57.777Z,3.87
2022-11-24T00:51:27.870Z,3.53
2022-11-24T00:53:56.451Z,2.77
2022-11-24T00:56:24.536Z,2.83
2022-11-24T00:58:52.182Z,3.03
2022-11-24T01:01:24.871Z,3.37
2022-11-24T01:03:52.732Z,4.37
2022-11-24T01:06:22.694Z,2.43
2022-11-24T01:08:50.043Z,3.80
2022-11-24T01:11:19.806Z,2.90
2022-11-24T01:13:49.008Z,5.80
2022-11-24T01:16:20.943Z,3.60
2022-11-24T01:18:48.506Z,3.20
2022-11-24T01:21:16.416Z,3.93
2022-11-24T01:23:44.190Z,3.90
2022-11-24T01:26:14.966Z,4.10
2022-11-24T01:28:47.001Z,3.77
2022-11-24T01:31:15.637Z,3.80
2022-11-24T01:33:43.178Z,3.77
2022-11-24T01:36:10.740Z,3.33
2022-11-24T01:38:38.149Z,3.97
2022-11-24T01:41:23.300Z,3.93
2022-11-24T01:43:52.190Z,5.00
2022-11-24T01:46:38.752Z,3.97
2022-11-24T01:49:14.914Z,3.67
2022-11-24T01:51:47.234Z,3.43
2022-11-24T01:54:36.170Z,4.10
2022-11-24T01:57:20.632Z,4.20
2022-11-24T01:59:50.389Z,3.90
2022-11-24T02:02:22.670Z,6.83
2022-11-24T02:04:50.812Z,4.07
2022-11-24T02:07:18.658Z,3.83
2022-11-24T02:09:52.874Z,4.27
2022-11-24T02:12:20.573Z,5.13
2022-11-24T02:14:47.853Z,4.37
2022-11-24T02:17:14.830Z,4.50
2022-11-24T02:19:42.143Z,3.93
2022-11-24T02:22:36.278Z,6.37
2022-11-24T02:25:34.245Z,5.33
2022-11-24T02:28:04.365Z,4.50
2022-11-24T02:30:31.996Z,4.33
2022-11-24T02:32:59.492Z,4.50
2022-11-24T02:35:27.952Z,3.97
2022-11-24T02:37:55.411Z,4.93
2022-11-24T02:40:25.615Z,5.67
2022-11-24T02:43:01.342Z,4.07
2022-11-24T02:45:28.919Z,5.03
2022-11-24T02:47:56.218Z,4.23
2022-11-24T02:50:23.617Z,4.87
2022-11-24T02:52:50.914Z,4.30
2022-11-24T02:55:18.337Z,6.97
2022-11-24T02:57:45.591Z,4.57
2022-11-24T03:00:13.109Z,5.37
2022-11-24T03:02:40.640Z,6.13
2022-11-24T03:05:08.220Z,4.57
2022-11-24T03:07:35.580Z,4.60
2022-11-24T03:10:02.960Z,4.57
2022-11-24T03:12:31.335Z,4.53
2022-11-24T03:14:58.687Z,4.03
2022-11-24T03:17:25.987Z,5.03
2022-11-24T03:19:53.267Z,5.13
2022-11-24T03:22:20.608Z,5.40
2022-11-24T03:24:47.893Z,4.03
2022-11-24T03:27:15.356Z,5.07
2022-11-24T03:29:42.607Z,5.67
2022-11-24T03:32:09.836Z,5.97
2022-11-24T03:34:37.156Z,5.80
2022-11-24T03:37:04.494Z,5.07
2022-11-24T03:39:31.790Z,4.93
2022-11-24T03:41:58.659Z,4.97
2022-11-24T03:44:25.952Z,4.13
2022-11-24T03:46:53.309Z,4.00
2022-11-24T03:49:20.612Z,4.37
2022-11-24T03:51:47.916Z,4.43
2022-11-24T03:54:15.397Z,4.40
2022-11-24T03:56:42.863Z,4.33
2022-11-24T03:59:10.125Z,5.00
2022-11-24T04:01:37.439Z,6.60
2022-11-24T04:04:04.871Z,4.40
2022-11-24T04:06:31.768Z,5.07
2022-11-24T04:09:00.485Z,3.87
2022-11-24T04:11:46.012Z,4.77
2022-11-24T04:14:13.933Z,3.70
2022-11-24T04:16:41.399Z,4.63
2022-11-24T04:19:08.714Z,4.37
2022-11-24T04:21:35.823Z,4.90
2022-11-24T04:24:03.100Z,4.20
2022-11-24T04:26:30.434Z,4.50
2022-11-24T04:28:57.741Z,4.97
2022-11-24T04:31:25.266Z,4.87
2022-11-24T04:33:52.591Z,4.90
2022-11-24T04:36:19.877Z,5.30
2022-11-24T04:39:24.332Z,4.47
2022-11-24T04:41:34.405Z,3.80
2022-11-24T04:44:01.705Z,3.93
2022-11-24T04:46:29.081Z,4.67
2022-11-24T04:48:56.502Z,4.27
2022-11-24T04:51:23.819Z,4.67
2022-11-24T04:53:51.084Z,4.20
2022-11-24T04:56:18.359Z,4.97
2022-11-24T04:58:49.003Z,4.53
2022-11-24T05:01:16.354Z,3.73
2022-11-24T05:03:43.765Z,3.87
2022-11-24T05:06:11.213Z,4.97
2022-11-24T05:08:38.510Z,3.67
2022-11-24T05:11:06.415Z,3.67
2022-11-24T05:13:33.858Z,4.03
2022-11-24T05:16:01.783Z,5.17
2022-11-24T05:18:29.236Z,4.40
2022-11-24T05:20:57.434Z,5.67
2022-11-24T05:23:24.768Z,6.10
2022-11-24T05:25:52.285Z,6.10
2022-11-24T05:28:19.654Z,5.20
2022-11-24T05:30:46.541Z,4.20
2022-11-24T05:33:19.094Z,4.23
2022-11-24T05:35:49.705Z,3.50
2022-11-24T05:38:17.834Z,3.70
2022-11-24T05:40:45.560Z,4.20
2022-11-24T05:43:17.384Z,4.30
2022-11-24T05:45:44.860Z,4.67
2022-11-24T05:48:14.484Z,4.53
2022-11-24T05:50:41.374Z,5.45
2022-11-24T05:53:10.396Z,5.20
2022-11-24T05:55:37.945Z,4.00
2022-11-24T05:58:07.370Z,3.73
2022-11-24T06:00:35.122Z,4.23
2022-11-24T06:03:02.747Z,3.53
2022-11-24T06:05:30.513Z,3.63
2022-11-24T06:07:59.429Z,4.87
2022-11-24T06:10:27.277Z,4.40
2022-11-24T06:12:54.563Z,3.80
2022-11-24T06:15:22.130Z,4.03
2022-11-24T06:17:56.124Z,3.73
2022-11-24T06:20:29.681Z,3.93
2022-11-24T06:22:59.120Z,5.77
2022-11-24T06:25:26.871Z,3.57
2022-11-24T06:27:54.309Z,5.20
2022-11-24T06:30:21.968Z,4.17
2022-11-24T06:32:50.001Z,4.30
2022-11-24T06:35:17.603Z,4.53
2022-11-24T06:37:45.851Z,4.50
2022-11-24T06:40:12.834Z,4.37
2022-11-24T06:42:40.165Z,3.50
2022-11-24T06:45:09.399Z,3.77
2022-11-24T06:47:37.282Z,6.27
2022-11-24T06:50:04.901Z,4.27
2022-11-24T06:52:32.261Z,3.60
2022-11-24T06:54:59.552Z,3.90
2022-11-24T06:57:29.587Z,4.47
2022-11-24T06:59:57.309Z,3.40
2022-11-24T07:02:24.848Z,5.30
2022-11-24T07:04:52.187Z,4.83
2022-11-24T07:07:19.544Z,3.77
2022-11-24T07:09:46.854Z,3.83
2022-11-24T07:12:14.026Z,4.23
2022-11-24T07:14:41.443Z,4.30
2022-11-24T07:17:08.470Z,4.33
2022-11-24T07:19:35.781Z,3.27
2022-11-24T07:22:02.718Z,3.73
2022-11-24T07:24:30.055Z,5.63
2022-11-24T07:26:57.378Z,4.50
2022-11-24T07:29:24.687Z,4.07
2022-11-24T07:31:52.052Z,3.53
2022-11-24T07:34:19.364Z,4.07
2022-11-24T07:36:46.693Z,6.13
2022-11-24T07:39:14.075Z,4.43
2022-11-24T07:41:41.390Z,5.40
2022-11-24T07:44:08.493Z,4.93
2022-11-24T07:46:35.788Z,3.47
2022-11-24T07:49:03.037Z,4.37
2022-11-24T07:51:30.382Z,4.87
2022-11-24T07:53:57.781Z,4.77
2022-11-24T07:56:25.200Z,5.83
2022-11-24T07:58:53.185Z,7.17
2022-11-24T08:01:20.780Z,3.87
2022-11-24T08:03:48.339Z,4.93
2022-11-24T08:06:25.429Z,4.63
2022-11-24T08:08:55.197Z,4.67
2022-11-24T08:11:22.504Z,5.03
2022-11-24T08:13:50.053Z,4.90
2022-11-24T08:16:19.207Z,5.57
2022-11-24T08:18:54.053Z,4.87
2022-11-24T08:21:23.317Z,4.27
2022-11-24T08:23:54.343Z,4.10
2022-11-24T08:26:21.747Z,4.43
2022-11-24T08:28:49.130Z,4.07
2022-11-24T08:31:21.020Z,5.23
2022-11-24T08:33:48.734Z,4.90
2022-11-24T08:36:18.238Z,4.23
2022-11-24T08:38:45.885Z,5.63
2022-11-24T08:41:16.880Z,5.07
2022-11-24T08:43:44.285Z,4.70
2022-11-24T08:46:14.138Z,4.40
2022-11-24T08:48:41.596Z,6.10
2022-11-24T08:51:15.376Z,3.87
2022-11-24T08:53:43.412Z,4.13
2022-11-24T08:56:12.851Z,4.20
2022-11-24T08:58:40.500Z,4.50
2022-11-24T09:01:13.837Z,4.97
2022-11-24T09:03:46.581Z,4.53
2022-11-24T09:06:19.369Z,5.10
2022-11-24T09:08:46.731Z,4.73
2022-11-24T09:11:15.138Z,6.00
2022-11-24T09:13:43.251Z,4.73
2022-11-24T09:16:21.513Z,4.73
2022-11-24T09:18:49.266Z,4.40
2022-11-24T09:21:19.123Z,5.00
2022-11-24T09:23:50.762Z,4.63
2022-11-24T09:26:20.809Z,4.40
2022-11-24T09:28:48.367Z,4.83
2022-11-24T09:31:17.578Z,4.93
2022-11-24T09:33:45.436Z,4.70
2022-11-24T09:36:13.117Z,4.50
2022-11-24T09:38:40.509Z,4.20
2022-11-24T09:41:35.291Z,5.03
2022-11-24T09:44:32.118Z,6.07
2022-11-24T09:46:59.875Z,4.33
2022-11-24T09:49:37.592Z,4.47
2022-11-24T09:52:11.091Z,4.40
2022-11-24T09:54:49.269Z,4.87
2022-11-24T09:57:17.001Z,4.97
2022-11-24T09:59:44.396Z,3.77
2022-11-24T10:02:13.277Z,4.60
2022-11-24T10:04:43.491Z,4.73
2022-11-24T10:07:45.114Z,6.43
2022-11-24T10:10:24.528Z,8.13
2022-11-24T10:13:29.456Z,4.20
2022-11-24T10:16:10.717Z,4.10
2022-11-24T10:18:51.767Z,4.80
2022-11-24T10:21:44.499Z,4.77
2022-11-24T10:24:51.747Z,4.90
2022-11-24T10:27:23.096Z,5.10
2022-11-24T10:29:52.504Z,4.83
2022-11-24T10:32:31.194Z,4.63
2022-11-24T10:35:12.757Z,4.47
2022-11-24T10:37:57.899Z,5.40
2022-11-24T10:43:22.033Z,4.37
2022-11-24T10:45:50.003Z,4.57
2022-11-24T10:48:25.868Z,5.67
2022-11-24T10:50:57.534Z,5.93
2022-11-24T10:53:30.645Z,5.03
2022-11-24T10:55:57.965Z,4.70
2022-11-24T10:58:38.428Z,4.10
2022-11-24T11:01:14.831Z,5.67
2022-11-24T11:03:51.735Z,7.33
2022-11-24T11:06:22.888Z,5.20
2022-11-24T11:08:50.300Z,5.47
2022-11-24T11:11:23.664Z,6.83
2022-11-24T11:14:04.347Z,6.97
2022-11-24T11:16:48.365Z,6.83
2022-11-24T11:19:51.819Z,6.87
2022-11-24T11:22:32.838Z,6.87
2022-11-24T11:25:07.045Z,12.27
2022-11-24T11:27:34.699Z,7.33
2022-11-24T11:36:16.417Z,7.53
2022-11-24T11:38:44.984Z,7.57
2022-11-24T11:41:20.422Z,7.23
2022-11-24T11:43:57.052Z,6.27
2022-11-24T11:46:26.368Z,6.27
2022-11-24T11:48:53.804Z,6.93
2022-11-24T11:51:31.868Z,6.30
2022-11-24T11:54:08.084Z,6.70
2022-11-24T11:56:46.369Z,8.47
2022-11-24T11:59:31.938Z,7.70
2022-11-24T12:02:11.704Z,6.20
2022-11-24T12:04:52.619Z,6.47
2022-11-24T12:07:42.269Z,6.10
2022-11-24T12:10:29.716Z,6.50
2022-11-24T12:13:23.638Z,5.90
2022-11-24T12:15:57.346Z,5.90
2022-11-24T12:18:55.236Z,5.50
2022-11-24T12:21:34.285Z,6.07
2022-11-24T12:24:10.574Z,5.97
2022-11-24T12:26:46.620Z,5.03
2022-11-24T12:29:43.788Z,5.57
2022-11-24T12:32:51.728Z,4.80
2022-11-24T12:35:45.068Z,5.70
2022-11-24T12:38:40.342Z,5.47
2022-11-24T12:44:22.528Z,6.30
2022-11-24T12:47:09.306Z,6.10
2022-11-24T12:49:51.852Z,5.87
2022-11-24T12:52:42.455Z,5.40
2022-11-24T12:55:18.665Z,5.90
2022-11-24T12:57:57.255Z,5.80
2022-11-24T13:00:31.684Z,6.30
2022-11-24T13:03:20.234Z,6.20
2022-11-24T13:06:02.758Z,6.17
2022-11-24T13:08:30.952Z,5.60
2022-11-24T13:11:23.015Z,5.40
2022-11-24T13:14:13.737Z,5.53
2022-11-24T13:17:27.860Z,5.03
2022-11-24T13:19:40.057Z,7.30
2022-11-24T13:22:07.519Z,5.67
2022-11-24T13:24:37.030Z,5.00
2022-11-24T13:27:16.313Z,4.37
2022-11-24T13:29:48.217Z,4.77
2022-11-24T13:32:15.591Z,5.20
2022-11-24T13:34:43.146Z,5.27
2022-11-24T13:37:39.516Z,5.13
2022-11-24T13:40:13.235Z,5.07
2022-11-24T13:42:58.065Z,5.87
2022-11-24T13:45:40.716Z,5.50
2022-11-24T13:48:20.514Z,5.60
2022-11-24T13:50:54.901Z,6.40
2022-11-24T13:53:41.130Z,5.87
2022-11-24T13:56:14.271Z,6.50
2022-11-24T13:58:52.247Z,6.33
2022-11-24T14:01:30.172Z,6.33
2022-11-24T14:07:08.680Z,7.47
2022-11-24T14:09:46.456Z,7.53
2022-11-24T14:12:16.281Z,7.17
2022-11-24T14:14:44.835Z,7.33
2022-11-24T14:17:19.453Z,6.83
2022-11-24T14:19:51.854Z,7.13
2022-11-24T14:22:26.615Z,7.37
2022-11-24T14:24:56.024Z,8.03
2022-11-24T14:27:33.878Z,10.57
2022-11-24T14:30:04.103Z,7.37
2022-11-24T14:32:31.632Z,7.93
2022-11-24T14:34:58.693Z,7.63
2022-11-24T14:37:26.184Z,8.17
2022-11-24T14:39:53.329Z,7.43
2022-11-24T14:42:25.660Z,8.10
2022-11-24T14:44:59.700Z,7.93
2022-11-24T14:47:32.093Z,7.77
2022-11-24T14:50:13.241Z,8.00
2022-11-24T14:52:46.343Z,7.90
2022-11-24T14:55:35.231Z,7.70
2022-11-24T14:58:02.741Z,9.00
2022-11-24T15:00:33.068Z,8.57
2022-11-24T15:03:05.645Z,9.17
2022-11-24T15:05:53.211Z,8.70
2022-11-24T15:08:20.506Z,8.60
2022-11-24T15:10:48.178Z,9.23
2022-11-24T15:13:25.770Z,8.90
2022-11-24T15:16:03.771Z,8.93
2022-11-24T15:18:40.920Z,8.60
2022-11-24T15:21:12.844Z,8.33
2022-11-24T15:23:45.735Z,8.30
2022-11-24T15:26:13.051Z,8.63
2022-11-24T15:28:41.300Z,9.60
2022-11-24T15:31:13.502Z,10.03
2022-11-24T15:33:41.493Z,10.80
2022-11-24T15:36:08.899Z,9.87
2022-11-24T15:38:36.530Z,9.93
2022-11-24T15:41:16.853Z,10.47
2022-11-24T15:43:44.273Z,9.63
2022-11-24T15:46:11.195Z,11.60
2022-11-24T15:48:38.583Z,10.30
2022-11-24T15:51:14.850Z,12.20
2022-11-24T15:53:49.490Z,10.73
2022-11-24T15:56:31.998Z,10.47
2022-11-24T15:58:59.444Z,11.23
2022-11-24T16:01:33.265Z,11.67
2022-11-24T16:04:01.091Z,12.80
2022-11-24T16:06:28.420Z,13.13
2022-11-24T16:08:55.768Z,13.20
2022-11-24T16:11:23.123Z,12.80
2022-11-24T16:13:53.249Z,13.07
2022-11-24T16:16:22.540Z,12.03
2022-11-24T16:18:49.990Z,11.67
2022-11-24T16:21:17.363Z,12.27
2022-11-24T16:23:45.600Z,14.43
2022-11-24T16:26:18.811Z,13.40
2022-11-24T16:29:00.654Z,12.50
2022-11-24T16:31:30.985Z,12.20
2022-11-24T16:33:58.423Z,11.90
2022-11-24T16:36:26.093Z,13.57
2022-11-24T16:38:53.457Z,13.57
2022-11-24T16:41:21.768Z,13.43
2022-11-24T16:43:49.200Z,13.97
2022-11-24T16:46:19.348Z,15.00
2022-11-24T16:48:48.207Z,15.37
2022-11-24T16:51:16.057Z,16.40
2022-11-24T16:53:43.422Z,17.40
2022-11-24T16:56:11.200Z,17.10
2022-11-24T16:58:40.408Z,17.80
2022-11-24T17:01:10.383Z,18.50
2022-11-24T17:03:38.202Z,17.60
2022-11-24T17:06:11.415Z,17.77
2022-11-24T17:08:40.232Z,19.23
2022-11-24T17:11:14.687Z,16.20
2022-11-24T17:13:42.753Z,17.17
2022-11-24T17:16:12.441Z,16.87
2022-11-24T17:18:40.283Z,16.70
2022-11-24T17:21:11.347Z,17.03
2022-11-24T17:23:38.709Z,16.13
2022-11-24T17:26:08.485Z,16.53
2022-11-24T17:28:36.285Z,15.67
2022-11-24T17:31:15.570Z,16.77
2022-11-24T17:33:43.006Z,15.57
2022-11-24T17:36:10.489Z,16.30
2022-11-24T17:38:37.903Z,16.90
2022-11-24T17:41:05.650Z,16.07
2022-11-24T17:43:33.241Z,15.83
2022-11-24T17:46:03.439Z,15.17
2022-11-24T17:48:31.753Z,14.90
2022-11-24T17:51:00.356Z,15.20
2022-11-24T17:53:27.978Z,14.67
2022-11-24T17:55:55.195Z,13.13
2022-11-24T17:58:22.512Z,15.60
2022-11-24T18:00:51.532Z,13.23
2022-11-24T18:03:18.897Z,14.60
2022-11-24T18:05:46.303Z,14.57
2022-11-24T18:08:13.507Z,12.90
2022-11-24T18:10:40.919Z,15.33
2022-11-24T18:13:07.890Z,12.07
2022-11-24T18:15:35.468Z,12.80
2022-11-24T18:18:04.233Z,13.23
2022-11-24T18:20:32.723Z,12.87
2022-11-24T18:23:05.865Z,12.73
2022-11-24T18:25:37.082Z,12.27
2022-11-24T18:28:04.530Z,12.23
2022-11-24T18:30:31.493Z,11.87
2022-11-24T18:32:58.782Z,11.77
2022-11-24T18:35:25.736Z,10.97
2022-11-24T18:37:53.371Z,9.80
2022-11-24T18:40:20.367Z,10.37
2022-11-24T18:42:47.827Z,9.40
2022-11-24T18:45:14.878Z,10.20
2022-11-24T18:47:42.434Z,10.00
2022-11-24T18:50:09.759Z,10.10
2022-11-24T18:52:37.181Z,9.23
2022-11-24T18:55:05.187Z,9.77
2022-11-24T18:57:32.743Z,9.87
2022-11-24T19:00:00.135Z,7.53
2022-11-24T19:02:27.205Z,10.13
2022-11-24T19:04:54.681Z,15.13
2022-11-24T19:07:22.000Z,10.03
2022-11-24T19:09:49.170Z,9.13
2022-11-24T19:12:16.233Z,8.60
2022-11-24T19:14:43.294Z,9.93
2022-11-24T19:17:10.285Z,10.03
2022-11-24T19:19:37.315Z,11.47
2022-11-24T19:22:04.708Z,9.33
2022-11-24T19:24:31.801Z,10.97
2022-11-24T19:26:59.398Z,11.13
2022-11-24T19:29:26.494Z,9.67
2022-11-24T19:31:55.024Z,12.47
2022-11-24T19:34:22.061Z,10.37
2022-11-24T19:36:50.135Z,10.97
2022-11-24T19:39:17.793Z,9.50
2022-11-24T19:41:45.344Z,8.53
2022-11-24T19:44:13.149Z,8.27
2022-11-24T19:46:40.729Z,8.20
2022-11-24T19:49:08.823Z,9.57
2022-11-24T19:51:38.509Z,7.20
2022-11-24T19:54:08.096Z,7.90
2022-11-24T19:56:37.301Z,7.40
2022-11-24T19:59:06.083Z,9.93
2022-11-24T20:01:37.482Z,8.70
2022-11-24T20:04:11.443Z,7.33
2022-11-24T20:06:41.705Z,7.47
2022-11-24T20:09:17.010Z,9.20
2022-11-24T20:11:46.280Z,7.63
2022-11-24T20:14:15.236Z,5.87
2022-11-24T20:16:43.263Z,5.80
2022-11-24T20:19:12.549Z,6.37
2022-11-24T20:21:41.503Z,6.07
2022-11-24T20:24:12.347Z,5.70
2022-11-24T20:26:45.957Z,7.40
2022-11-24T20:29:13.958Z,6.13
2022-11-24T20:31:47.649Z,6.80
2022-11-24T20:34:15.337Z,5.50
2022-11-24T20:36:44.587Z,5.50
2022-11-24T20:39:20.485Z,6.00
2022-11-24T20:41:47.889Z,5.67
2022-11-24T20:44:16.661Z,5.30
2022-11-24T20:46:45.853Z,6.50
2022-11-24T20:49:18.200Z,5.40
2022-11-24T20:51:47.607Z,5.37
2022-11-24T20:54:17.912Z,5.83
2022-11-24T20:56:46.500Z,5.20
2022-11-24T20:59:22.742Z,5.27
2022-11-24T21:01:51.079Z,5.33
2022-11-24T21:04:21.319Z,5.00
2022-11-24T21:06:48.985Z,5.80
2022-11-24T21:09:16.317Z,4.90
2022-11-24T21:11:43.660Z,6.03
2022-11-24T21:14:11.227Z,4.97
2022-11-24T21:16:40.001Z,5.10
2022-11-24T21:19:11.467Z,5.03
2022-11-24T21:21:40.009Z,5.10
2022-11-24T21:24:11.543Z,6.90
2022-11-24T21:26:39.728Z,4.33
2022-11-24T21:29:07.465Z,4.87
2022-11-24T21:31:39.495Z,4.20
2022-11-24T21:34:07.210Z,4.40
2022-11-24T21:36:35.105Z,5.60
2022-11-24T21:39:03.475Z,7.07
2022-11-24T21:41:32.905Z,5.77
2022-11-24T21:44:00.219Z,4.67
2022-11-24T21:46:29.595Z,5.70
2022-11-24T21:48:56.882Z,4.90
2022-11-24T21:51:24.231Z,5.30
2022-11-24T21:53:51.495Z,6.20
2022-11-24T21:56:20.491Z,6.10
2022-11-24T21:58:55.838Z,5.10
2022-11-24T22:01:25.040Z,4.80
2022-11-24T22:03:52.348Z,5.60
2022-11-24T22:06:20.304Z,4.00
2022-11-24T22:08:48.199Z,4.47
2022-11-24T22:11:26.857Z,5.97
2022-11-24T22:13:53.815Z,4.87
2022-11-24T22:16:25.614Z,4.83
2022-11-24T22:18:53.018Z,6.50
2022-11-24T22:21:23.796Z,4.03
2022-11-24T22:23:52.414Z,4.20
2022-11-24T22:26:22.394Z,6.20
2022-11-24T22:28:49.829Z,5.07
2022-11-24T22:31:22.303Z,5.13
2022-11-24T22:33:50.430Z,4.37
2022-11-24T22:36:20.813Z,3.77
2022-11-24T22:38:48.501Z,5.43
2022-11-24T22:41:17.525Z,5.07
2022-11-24T22:43:45.869Z,4.67
2022-11-24T22:46:18.228Z,5.13
2022-11-24T22:48:46.367Z,4.13
2022-11-24T22:51:15.862Z,8.07
2022-11-24T22:53:47.746Z,8.53
2022-11-24T22:56:15.381Z,4.80
2022-11-24T22:58:43.188Z,5.13
2022-11-24T23:01:12.953Z,4.43
2022-11-24T23:03:40.514Z,4.43
2022-11-24T23:06:12.525Z,4.93
2022-11-24T23:08:39.921Z,3.90
2022-11-24T23:11:15.489Z,4.60
2022-11-24T23:13:42.973Z,5.53
2022-11-24T23:16:12.984Z,4.67
2022-11-24T23:18:40.715Z,4.73
2022-11-24T23:21:11.335Z,5.83
2022-11-24T23:23:38.683Z,4.60
2022-11-24T23:26:08.045Z,5.90
2022-11-24T23:28:35.317Z,5.83
2022-11-24T23:31:08.048Z,8.30
2022-11-24T23:33:35.777Z,7.20
2022-11-24T23:36:14.326Z,6.20
2022-11-24T23:38:41.985Z,7.00
2022-11-24T23:41:11.612Z,6.90
2022-11-24T23:43:40.016Z,7.03
2022-11-24T23:46:12.593Z,7.17
2022-11-24T23:48:40.229Z,7.47
2022-11-24T23:51:10.529Z,7.17
2022-11-24T23:53:37.981Z,8.57
2022-11-24T23:56:05.868Z,7.93
2022-11-24T23:58:33.605Z,7.27
